createdAt,value
2022-10-11T00:01:08.170Z,11.51
2022-10-11T00:03:34.617Z,11.56
2022-10-11T00:06:03.197Z,11.54
2022-10-11T00:08:30.061Z,11.61
2022-10-11T00:10:58.791Z,11.76
2022-10-11T00:13:25.702Z,11.97
2022-10-11T00:15:52.235Z,12.10
2022-10-11T00:18:19.987Z,12.03
2022-10-11T00:20:46.395Z,12.02
2022-10-11T00:23:12.802Z,12.14
2022-10-11T00:25:39.340Z,12.14
2022-10-11T00:28:06.180Z,12.18
2022-10-11T00:30:33.125Z,12.20
2022-10-11T00:32:59.609Z,12.16
2022-10-11T00:35:26.188Z,12.14
2022-10-11T00:37:52.539Z,12.03
2022-10-11T00:40:20.873Z,12.01
2022-10-11T00:42:47.586Z,12.07
2022-10-11T00:45:26.347Z,12.07
2022-10-11T00:48:14.516Z,12.04
2022-10-11T00:50:41.743Z,11.99
2022-10-11T00:53:11.738Z,11.89
2022-10-11T00:55:49.356Z,11.80
2022-10-11T00:58:17.678Z,11.87
2022-10-11T01:00:44.124Z,11.72
2022-10-11T01:03:10.734Z,11.68
2022-10-11T01:05:39.665Z,11.82
2022-10-11T01:08:08.441Z,11.80
2022-10-11T01:10:35.291Z,11.77
2022-10-11T01:13:27.771Z,11.70
2022-10-11T01:16:05.655Z,11.58
2022-10-11T01:18:58.793Z,11.56
2022-10-11T01:21:33.843Z,11.48
2022-10-11T01:24:18.504Z,11.45
2022-10-11T01:27:40.638Z,11.46
2022-10-11T01:30:20.452Z,11.29
2022-10-11T01:32:57.439Z,11.27
2022-10-11T01:35:38.980Z,11.21
2022-10-11T01:38:13.334Z,11.11
2022-10-11T01:40:47.918Z,11.13
2022-10-11T01:43:15.730Z,11.17
2022-10-11T01:45:43.518Z,11.08
2022-10-11T01:48:12.765Z,11.00
2022-10-11T01:50:44.247Z,10.97
2022-10-11T01:53:26.885Z,10.90
2022-10-11T01:56:14.728Z,10.71
2022-10-11T01:59:08.090Z,10.41
2022-10-11T02:01:58.457Z,10.43
2022-10-11T02:04:31.465Z,10.25
2022-10-11T02:07:00.775Z,10.04
2022-10-11T02:09:37.418Z,9.96
2022-10-11T02:12:09.616Z,9.93
2022-10-11T02:14:41.144Z,9.76
2022-10-11T02:17:13.876Z,9.75
2022-10-11T02:19:46.991Z,9.51
2022-10-11T02:22:27.822Z,9.51
2022-10-11T02:24:58.801Z,9.29
2022-10-11T02:27:30.248Z,9.24
2022-10-11T02:30:00.031Z,9.10
2022-10-11T02:32:29.164Z,9.07
2022-10-11T02:34:58.112Z,8.85
2022-10-11T02:37:24.433Z,8.79
2022-10-11T02:39:58.450Z,8.76
2022-10-11T02:42:30.776Z,8.49
2022-10-11T02:45:02.887Z,8.45
2022-10-11T02:47:31.293Z,8.29
2022-10-11T02:49:59.657Z,8.16
2022-10-11T02:52:26.689Z,8.21
2022-10-11T02:54:53.081Z,8.13
2022-10-11T02:57:20.042Z,8.08
2022-10-11T02:59:46.444Z,8.08
2022-10-11T03:02:13.013Z,8.11
2022-10-11T03:04:39.455Z,8.07
2022-10-11T03:07:05.808Z,8.00
2022-10-11T03:09:32.561Z,7.92
2022-10-11T03:11:58.963Z,7.73
2022-10-11T03:14:25.405Z,7.41
2022-10-11T03:16:51.761Z,7.31
2022-10-11T03:19:19.415Z,7.17
2022-10-11T03:21:46.265Z,7.24
2022-10-11T03:24:12.661Z,7.08
2022-10-11T03:26:39.043Z,6.79
2022-10-11T03:29:05.497Z,6.94
2022-10-11T03:31:31.937Z,6.85
2022-10-11T03:33:58.372Z,6.58
2022-10-11T03:36:24.761Z,6.56
2022-10-11T03:38:51.110Z,6.62
2022-10-11T03:41:17.722Z,6.37
2022-10-11T03:43:44.437Z,6.29
2022-10-11T03:46:10.883Z,6.17
2022-10-11T03:48:37.255Z,6.21
2022-10-11T03:51:03.647Z,5.97
2022-10-11T03:53:30.023Z,5.83
2022-10-11T03:55:56.501Z,5.92
2022-10-11T03:58:23.953Z,5.95
2022-10-11T04:00:52.523Z,5.90
2022-10-11T04:03:18.933Z,5.81
2022-10-11T04:05:45.346Z,5.64
2022-10-11T04:08:12.451Z,5.50
2022-10-11T04:10:39.960Z,5.61
2022-10-11T04:13:07.328Z,5.58
2022-10-11T04:15:33.706Z,5.36
2022-10-11T04:18:00.188Z,5.30
2022-10-11T04:20:26.558Z,5.36
2022-10-11T04:22:52.996Z,5.41
2022-10-11T04:25:19.383Z,5.31
2022-10-11T04:27:45.826Z,5.22
2022-10-11T04:30:12.826Z,5.15
2022-10-11T04:32:39.214Z,5.14
2022-10-11T04:35:06.215Z,5.17
2022-10-11T04:37:33.096Z,5.09
2022-10-11T04:39:59.843Z,4.89
2022-10-11T04:42:26.283Z,4.85
2022-10-11T04:44:52.690Z,4.85
2022-10-11T04:47:19.162Z,4.92
2022-10-11T04:49:45.576Z,4.85
2022-10-11T04:52:12.036Z,4.79
2022-10-11T04:54:38.439Z,4.78
2022-10-11T04:57:04.831Z,4.64
2022-10-11T04:59:31.502Z,4.54
2022-10-11T05:01:58.031Z,4.45
2022-10-11T05:04:24.495Z,4.37
2022-10-11T05:06:51.133Z,4.28
2022-10-11T05:09:17.712Z,4.26
2022-10-11T05:11:44.093Z,4.16
2022-10-11T05:14:10.475Z,4.13
2022-10-11T05:16:36.938Z,4.10
2022-10-11T05:19:03.461Z,4.11
2022-10-11T05:21:30.533Z,4.13
2022-10-11T05:23:57.559Z,4.02
2022-10-11T05:26:27.168Z,3.96
2022-10-11T05:28:54.477Z,3.94
2022-10-11T05:31:21.420Z,3.96
2022-10-11T05:33:47.951Z,3.87
2022-10-11T05:36:14.538Z,3.84
2022-10-11T05:38:41.318Z,3.86
2022-10-11T05:41:11.244Z,3.89
2022-10-11T05:43:37.671Z,3.93
2022-10-11T05:46:04.423Z,3.92
2022-10-11T05:48:31.060Z,3.96
2022-10-11T05:51:06.422Z,3.85
2022-10-11T05:53:33.298Z,3.95
2022-10-11T05:55:59.693Z,3.92
2022-10-11T05:58:26.819Z,3.78
2022-10-11T06:00:53.284Z,4.05
2022-10-11T06:03:21.044Z,4.63
2022-10-11T06:05:47.703Z,5.59
2022-10-11T06:08:14.764Z,6.70
2022-10-11T06:10:41.691Z,7.53
2022-10-11T06:13:09.383Z,8.04
2022-10-11T06:15:38.890Z,8.28
2022-10-11T06:18:05.423Z,8.81
2022-10-11T06:20:31.960Z,8.87
2022-10-11T06:22:59.021Z,8.78
2022-10-11T06:25:25.510Z,8.48
2022-10-11T06:27:51.946Z,7.85
2022-10-11T06:30:18.409Z,7.72
2022-10-11T06:32:44.836Z,7.66
2022-10-11T06:35:11.560Z,7.32
2022-10-11T06:37:37.927Z,7.67
2022-10-11T06:40:05.912Z,7.92
2022-10-11T06:42:32.386Z,8.09
2022-10-11T06:44:58.863Z,8.18
2022-10-11T06:47:25.264Z,8.20
2022-10-11T06:49:51.661Z,8.29
2022-10-11T06:52:18.153Z,8.37
2022-10-11T06:54:45.552Z,8.22
2022-10-11T06:57:12.100Z,8.06
2022-10-11T06:59:38.524Z,8.36
2022-10-11T07:02:04.976Z,8.63
2022-10-11T07:04:33.643Z,8.84
2022-10-11T07:07:00.154Z,8.87
2022-10-11T07:09:26.607Z,8.73
2022-10-11T07:11:53.179Z,8.93
2022-10-11T07:14:19.611Z,9.42
2022-10-11T07:16:46.029Z,10.17
2022-10-11T07:19:12.518Z,10.36
2022-10-11T07:21:38.953Z,10.53
2022-10-11T07:24:05.901Z,10.76
2022-10-11T07:26:38.120Z,11.01
2022-10-11T07:29:08.006Z,10.53
2022-10-11T07:31:36.132Z,10.15
2022-10-11T07:34:02.771Z,11.22
2022-10-11T07:36:29.398Z,10.93
2022-10-11T07:38:55.806Z,11.63
2022-10-11T07:41:22.216Z,12.72
2022-10-11T07:43:49.860Z,13.82
2022-10-11T07:46:17.979Z,15.40
2022-10-11T07:48:44.737Z,16.43
2022-10-11T07:51:18.296Z,17.23
2022-10-11T07:53:47.505Z,17.60
2022-10-11T07:56:16.517Z,17.82
2022-10-11T07:58:43.374Z,17.60
2022-10-11T08:01:10.869Z,17.66
2022-10-11T08:03:38.131Z,18.22
2022-10-11T08:06:09.039Z,18.89
2022-10-11T08:08:37.048Z,19.27
2022-10-11T08:11:04.327Z,19.48
2022-10-11T08:13:31.632Z,19.67
2022-10-11T08:15:58.233Z,19.92
2022-10-11T08:18:25.040Z,19.79
2022-10-11T08:20:52.058Z,19.93
2022-10-11T08:23:19.372Z,20.17
2022-10-11T08:25:47.654Z,19.51
2022-10-11T08:28:17.976Z,19.76
2022-10-11T08:30:50.368Z,19.01
2022-10-11T08:33:21.284Z,19.29
2022-10-11T08:35:48.672Z,19.53
2022-10-11T08:38:15.297Z,19.18
2022-10-11T08:40:55.178Z,19.28
2022-10-11T08:43:36.008Z,18.61
2022-10-11T08:46:05.914Z,18.52
2022-10-11T08:48:36.613Z,18.53
2022-10-11T08:51:14.773Z,18.77
2022-10-11T08:53:48.156Z,18.91
2022-10-11T08:56:16.473Z,19.08
2022-10-11T08:58:54.431Z,18.37
2022-10-11T09:01:23.723Z,18.20
2022-10-11T09:03:51.617Z,18.86
2022-10-11T09:06:21.455Z,18.84
2022-10-11T09:08:58.582Z,18.79
2022-10-11T09:11:45.557Z,19.00
2022-10-11T09:14:17.769Z,19.41
2022-10-11T09:17:01.470Z,19.06
2022-10-11T09:20:08.550Z,18.75
2022-10-11T09:22:44.072Z,18.92
2022-10-11T09:25:44.229Z,19.67
2022-10-11T09:28:21.933Z,19.44
2022-10-11T09:30:52.653Z,19.64
2022-10-11T09:33:38.815Z,20.08
2022-10-11T09:36:26.401Z,20.63
2022-10-11T09:39:15.743Z,21.42
2022-10-11T09:41:52.035Z,22.19
2022-10-11T09:44:27.487Z,22.33
2022-10-11T09:46:56.059Z,23.42
2022-10-11T09:49:29.121Z,24.71
2022-10-11T09:51:58.850Z,25.63
2022-10-11T09:54:49.247Z,25.92
2022-10-11T09:57:24.998Z,26.53
2022-10-11T10:00:00.477Z,27.17
2022-10-11T10:02:29.585Z,27.48
2022-10-11T10:05:02.233Z,26.88
2022-10-11T10:07:31.595Z,26.09
2022-10-11T10:09:58.564Z,27.16
2022-10-11T10:12:29.304Z,26.60
2022-10-11T10:15:18.852Z,26.31
2022-10-11T10:17:53.135Z,26.62
2022-10-11T10:20:22.558Z,27.04
2022-10-11T10:22:49.336Z,26.58
2022-10-11T10:25:29.890Z,27.24
2022-10-11T10:27:59.276Z,26.87
2022-10-11T10:30:26.185Z,26.82
2022-10-11T10:33:00.678Z,27.42
2022-10-11T10:35:27.398Z,27.07
2022-10-11T10:37:56.556Z,27.39
2022-10-11T10:40:30.091Z,27.15
2022-10-11T10:42:56.496Z,27.91
2022-10-11T10:45:32.870Z,27.43
2022-10-11T10:48:18.182Z,27.03
2022-10-11T10:51:05.970Z,28.41
2022-10-11T10:53:42.016Z,25.86
2022-10-11T10:56:17.847Z,26.32
2022-10-11T10:58:46.945Z,26.52
2022-10-11T11:01:27.175Z,25.29
2022-10-11T11:03:57.556Z,26.19
2022-10-11T11:06:41.370Z,27.15
2022-10-11T11:09:17.707Z,26.43
2022-10-11T11:11:57.149Z,26.46
2022-10-11T11:14:43.991Z,26.98
2022-10-11T11:17:31.359Z,27.21
2022-10-11T11:20:31.091Z,27.74
2022-10-11T11:23:38.146Z,28.73
2022-10-11T11:26:11.215Z,28.20
2022-10-11T11:29:03.386Z,28.48
2022-10-11T11:31:44.662Z,28.82
2022-10-11T11:34:18.891Z,27.36
2022-10-11T11:36:55.394Z,27.86
2022-10-11T11:39:25.832Z,27.81
2022-10-11T11:41:59.683Z,28.62
2022-10-11T11:44:34.451Z,27.80
2022-10-11T11:47:21.321Z,27.93
2022-10-11T11:49:53.743Z,27.59
2022-10-11T11:52:26.920Z,26.99
2022-10-11T11:55:03.739Z,25.92
2022-10-11T11:58:15.553Z,25.59
2022-10-11T12:00:54.534Z,24.08
2022-10-11T12:03:27.238Z,23.53
2022-10-11T12:06:11.969Z,25.49
2022-10-11T12:08:40.661Z,25.63
2022-10-11T12:11:17.912Z,26.76
2022-10-11T12:13:46.548Z,28.11
2022-10-11T12:16:16.340Z,29.43
2022-10-11T12:19:03.607Z,29.92
2022-10-11T12:21:33.498Z,30.06
2022-10-11T12:24:10.710Z,29.29
2022-10-11T12:26:42.933Z,28.60
2022-10-11T12:29:18.662Z,27.93
2022-10-11T12:31:48.026Z,27.43
2022-10-11T12:34:37.605Z,26.60
2022-10-11T12:37:24.435Z,24.55
2022-10-11T12:39:55.784Z,24.14
2022-10-11T12:42:34.366Z,25.52
2022-10-11T12:45:13.026Z,27.01
2022-10-11T12:47:59.312Z,27.92
2022-10-11T12:51:02.944Z,29.03
2022-10-11T12:53:29.626Z,29.49
2022-10-11T12:56:12.387Z,28.57
2022-10-11T12:58:43.821Z,28.28
2022-10-11T13:01:14.837Z,28.05
2022-10-11T13:03:44.851Z,27.72
2022-10-11T13:06:12.843Z,26.89
2022-10-11T13:08:43.185Z,28.80
2022-10-11T13:11:11.644Z,28.97
2022-10-11T13:13:44.920Z,29.38
2022-10-11T13:16:21.407Z,29.66
2022-10-11T13:18:54.201Z,30.02
2022-10-11T13:21:31.469Z,29.89
2022-10-11T13:24:00.627Z,29.56
2022-10-11T13:26:29.057Z,28.24
2022-10-11T13:28:55.764Z,27.53
2022-10-11T13:31:24.287Z,25.81
2022-10-11T13:33:55.105Z,24.85
2022-10-11T13:36:25.583Z,24.07
2022-10-11T13:39:00.373Z,24.48
2022-10-11T13:41:29.779Z,24.12
2022-10-11T13:43:58.202Z,23.54
2022-10-11T13:46:27.854Z,23.35
2022-10-11T13:48:59.031Z,23.45
2022-10-11T13:51:35.928Z,23.09
2022-10-11T13:54:11.737Z,24.73
2022-10-11T13:56:48.081Z,27.01
2022-10-11T13:59:20.167Z,27.16
2022-10-11T14:01:47.567Z,26.85
2022-10-11T14:04:17.122Z,25.71
2022-10-11T14:06:48.010Z,25.48
2022-10-11T14:09:26.212Z,24.54
2022-10-11T14:11:53.418Z,23.76
2022-10-11T14:14:35.515Z,23.20
2022-10-11T14:17:06.462Z,22.13
2022-10-11T14:19:32.995Z,21.61
2022-10-11T14:21:59.443Z,21.56
2022-10-11T14:24:25.884Z,20.94
2022-10-11T14:26:54.495Z,20.45
2022-10-11T14:29:29.354Z,20.13
2022-10-11T14:32:14.090Z,19.33
2022-10-11T14:34:40.513Z,18.92
2022-10-11T14:37:06.904Z,18.42
2022-10-11T14:39:33.440Z,17.94
2022-10-11T14:41:59.888Z,17.71
2022-10-11T14:44:26.413Z,17.13
2022-10-11T14:46:54.826Z,16.92
2022-10-11T14:49:30.326Z,16.86
2022-10-11T14:51:58.410Z,16.69
2022-10-11T14:54:26.873Z,16.70
2022-10-11T14:56:56.500Z,16.61
2022-10-11T14:59:25.695Z,16.49
2022-10-11T15:01:53.957Z,16.38
2022-10-11T15:04:21.840Z,16.56
2022-10-11T15:06:49.025Z,16.39
2022-10-11T15:09:17.118Z,16.42
2022-10-11T15:11:43.871Z,16.36
2022-10-11T15:14:10.263Z,16.34
2022-10-11T15:16:36.643Z,16.21
2022-10-11T15:19:03.818Z,16.05
2022-10-11T15:21:30.298Z,15.94
2022-10-11T15:23:56.836Z,15.85
2022-10-11T15:26:26.378Z,15.85
2022-10-11T15:28:54.756Z,15.86
2022-10-11T15:31:21.559Z,15.81
2022-10-11T15:33:48.553Z,15.68
2022-10-11T15:36:21.487Z,15.66
2022-10-11T15:38:49.168Z,15.58
2022-10-11T15:41:18.744Z,15.51
2022-10-11T15:43:46.544Z,15.49
2022-10-11T15:46:18.075Z,15.40
2022-10-11T15:48:45.583Z,15.20
2022-10-11T15:51:12.245Z,15.08
2022-10-11T15:53:39.055Z,14.98
2022-10-11T15:56:09.206Z,14.73
2022-10-11T15:58:38.108Z,14.67
2022-10-11T16:01:08.291Z,14.49
2022-10-11T16:03:36.072Z,14.40
2022-10-11T16:06:05.574Z,14.19
2022-10-11T16:08:33.293Z,14.00
2022-10-11T16:11:00.224Z,13.94
2022-10-11T16:13:26.705Z,13.71
2022-10-11T16:15:53.210Z,13.50
2022-10-11T16:18:20.947Z,13.07
2022-10-11T16:20:48.895Z,12.87
2022-10-11T16:23:15.660Z,12.66
2022-10-11T16:25:42.438Z,12.53
2022-10-11T16:28:10.118Z,12.37
2022-10-11T16:30:43.103Z,12.17
2022-10-11T16:33:09.894Z,11.92
2022-10-11T16:35:36.692Z,11.73
2022-10-11T16:38:03.118Z,11.62
2022-10-11T16:40:30.044Z,11.35
2022-10-11T16:42:56.811Z,11.20
2022-10-11T16:45:23.455Z,11.01
2022-10-11T16:47:49.913Z,10.81
2022-10-11T16:50:16.393Z,10.68
2022-10-11T16:52:42.799Z,10.46
2022-10-11T16:55:09.661Z,10.37
2022-10-11T16:57:37.681Z,10.18
2022-10-11T17:00:08.700Z,10.03
2022-10-11T17:02:36.123Z,9.88
2022-10-11T17:05:03.893Z,9.67
2022-10-11T17:07:30.904Z,9.57
2022-10-11T17:09:58.128Z,9.43
2022-10-11T17:12:24.641Z,9.37
2022-10-11T17:14:51.482Z,9.19
2022-10-11T17:17:18.957Z,9.09
2022-10-11T17:19:47.560Z,8.94
2022-10-11T17:22:16.678Z,8.89
2022-10-11T17:24:43.661Z,8.74
2022-10-11T17:27:10.123Z,8.62
2022-10-11T17:29:37.165Z,8.42
2022-10-11T17:32:04.156Z,8.33
2022-10-11T17:34:30.770Z,8.16
2022-10-11T17:36:57.121Z,8.08
2022-10-11T17:39:24.061Z,7.99
2022-10-11T17:41:50.636Z,7.92
2022-10-11T17:44:18.766Z,7.80
2022-10-11T17:46:46.451Z,7.67
2022-10-11T17:49:13.057Z,7.63
2022-10-11T17:51:40.197Z,7.54
2022-10-11T17:54:12.184Z,7.43
2022-10-11T17:56:40.433Z,7.35
2022-10-11T17:59:08.397Z,7.31
2022-10-11T18:01:35.668Z,7.22
2022-10-11T18:04:05.060Z,7.11
2022-10-11T18:06:34.145Z,6.98
2022-10-11T18:09:02.285Z,6.92
2022-10-11T18:11:29.307Z,6.86
2022-10-11T18:13:56.021Z,6.86
2022-10-11T18:16:26.854Z,6.83
2022-10-11T18:18:54.706Z,6.70
2022-10-11T18:21:21.174Z,6.63
2022-10-11T18:23:47.789Z,6.69
2022-10-11T18:26:17.538Z,6.57
2022-10-11T18:28:44.384Z,6.57
2022-10-11T18:31:17.033Z,6.41
2022-10-11T18:33:45.870Z,6.37
2022-10-11T18:36:14.172Z,6.25
2022-10-11T18:38:46.075Z,6.35
2022-10-11T18:41:14.999Z,6.23
2022-10-11T18:43:41.948Z,6.19
2022-10-11T18:46:13.853Z,6.16
2022-10-11T18:48:42.038Z,6.00
2022-10-11T18:51:11.579Z,5.92
2022-10-11T18:53:38.460Z,5.85
2022-10-11T18:56:07.231Z,5.80
2022-10-11T18:58:35.464Z,5.76
2022-10-11T19:01:20.438Z,5.65
2022-10-11T19:03:49.056Z,5.58
2022-10-11T19:06:18.210Z,5.54
2022-10-11T19:08:46.706Z,5.53
2022-10-11T19:11:14.040Z,5.43
2022-10-11T19:13:40.515Z,5.40
2022-10-11T19:16:09.867Z,5.30
2022-10-11T19:18:41.718Z,5.28
2022-10-11T19:21:12.685Z,5.22
2022-10-11T19:23:42.065Z,5.13
2022-10-11T19:26:31.303Z,5.08
2022-10-11T19:29:00.663Z,4.99
2022-10-11T19:31:28.301Z,5.00
2022-10-11T19:33:57.105Z,5.01
2022-10-11T19:36:24.259Z,4.96
2022-10-11T19:38:51.432Z,4.82
2022-10-11T19:41:19.774Z,4.62
2022-10-11T19:43:47.009Z,4.50
2022-10-11T19:46:20.262Z,4.46
2022-10-11T19:48:50.859Z,4.44
2022-10-11T19:51:22.896Z,4.50
2022-10-11T19:53:55.175Z,4.39
2022-10-11T19:56:21.611Z,4.40
2022-10-11T19:58:48.522Z,4.50
2022-10-11T20:01:21.406Z,4.44
2022-10-11T20:03:53.870Z,4.44
2022-10-11T20:06:22.017Z,4.36
2022-10-11T20:09:10.348Z,4.25
2022-10-11T20:11:38.024Z,4.17
2022-10-11T20:14:04.805Z,4.11
2022-10-11T20:16:31.318Z,4.06
2022-10-11T20:19:01.999Z,4.01
2022-10-11T20:21:30.310Z,4.01
2022-10-11T20:24:02.035Z,3.94
2022-10-11T20:26:29.737Z,3.91
2022-10-11T20:28:57.417Z,3.87
2022-10-11T20:31:32.781Z,3.85
2022-10-11T20:34:06.104Z,3.79
2022-10-11T20:36:34.204Z,3.76
2022-10-11T20:39:00.742Z,3.52
2022-10-11T20:41:33.132Z,3.51
2022-10-11T20:44:01.320Z,3.48
2022-10-11T20:46:31.300Z,3.43
2022-10-11T20:49:01.860Z,3.40
2022-10-11T20:51:30.484Z,3.44
2022-10-11T20:53:57.005Z,3.45
2022-10-11T20:56:23.472Z,3.39
2022-10-11T20:58:52.335Z,3.35
2022-10-11T21:01:21.151Z,3.43
2022-10-11T21:03:47.658Z,3.27
2022-10-11T21:06:14.050Z,3.31
2022-10-11T21:08:40.795Z,3.20
2022-10-11T21:11:08.407Z,3.18
2022-10-11T21:13:34.970Z,3.26
2022-10-11T21:16:12.353Z,3.26
2022-10-11T21:18:39.325Z,3.22
2022-10-11T21:21:07.679Z,3.13
2022-10-11T21:23:34.575Z,2.97
2022-10-11T21:26:02.769Z,3.04
2022-10-11T21:28:29.775Z,3.02
2022-10-11T21:31:02.237Z,2.82
2022-10-11T21:33:30.064Z,2.82
2022-10-11T21:35:57.409Z,2.71
2022-10-11T21:38:23.841Z,2.74
2022-10-11T21:40:50.207Z,2.80
2022-10-11T21:43:16.614Z,2.75
2022-10-11T21:45:43.148Z,2.77
2022-10-11T21:48:09.490Z,2.69
2022-10-11T21:50:35.886Z,2.72
2022-10-11T21:53:02.369Z,2.64
2022-10-11T21:55:28.847Z,2.62
2022-10-11T21:57:55.251Z,2.52
2022-10-11T22:00:21.620Z,2.48
2022-10-11T22:02:48.107Z,2.58
2022-10-11T22:05:14.465Z,2.61
2022-10-11T22:07:40.836Z,2.42
2022-10-11T22:10:07.348Z,2.43
2022-10-11T22:12:33.959Z,2.38
2022-10-11T22:15:00.600Z,2.32
2022-10-11T22:17:26.987Z,2.35
2022-10-11T22:19:53.360Z,2.24
2022-10-11T22:22:19.751Z,2.28
2022-10-11T22:24:46.153Z,2.26
2022-10-11T22:27:12.562Z,2.20
2022-10-11T22:29:38.921Z,2.21
2022-10-11T22:32:05.329Z,2.10
2022-10-11T22:34:32.724Z,2.04
2022-10-11T22:36:59.079Z,2.00
2022-10-11T22:39:25.553Z,2.01
2022-10-11T22:41:53.997Z,2.01
2022-10-11T22:44:20.695Z,2.09
2022-10-11T22:46:47.185Z,2.00
2022-10-11T22:49:13.619Z,1.97
2022-10-11T22:51:39.991Z,1.91
2022-10-11T22:54:06.380Z,1.88
2022-10-11T22:56:32.851Z,1.81
2022-10-11T22:58:59.471Z,1.83
2022-10-11T23:01:25.850Z,1.87
2022-10-11T23:03:52.303Z,1.80
2022-10-11T23:06:18.745Z,1.74
2022-10-11T23:08:45.220Z,1.82
2022-10-11T23:11:13.591Z,1.74
2022-10-11T23:13:39.993Z,1.75
2022-10-11T23:16:08.013Z,1.69
2022-10-11T23:18:34.671Z,1.70
2022-10-11T23:21:01.365Z,1.66
2022-10-11T23:23:27.732Z,1.65
2022-10-11T23:26:05.064Z,1.64
2022-10-11T23:28:32.052Z,1.67
2022-10-11T23:30:58.781Z,1.76
2022-10-11T23:33:25.521Z,1.79
2022-10-11T23:35:51.883Z,1.84
2022-10-11T23:38:18.287Z,1.77
2022-10-11T23:40:44.697Z,1.78
2022-10-11T23:43:11.103Z,1.99
2022-10-11T23:45:37.601Z,1.92
2022-10-11T23:48:04.402Z,1.89
2022-10-11T23:50:30.749Z,1.82
2022-10-11T23:52:57.170Z,1.77
2022-10-11T23:55:23.508Z,1.78
2022-10-11T23:57:49.948Z,1.69
